Time;durP1;ratioP1;P1;durP2;ratioP2;P2;SDS_P1;SDS_P2;PMS_P1;PMS_P2;Temp;Humidity;BMP_temperature;BMP_pressure;BME280_temperature;BME280_humidity;BME280_pressure;Samples;Min_cycle;Max_cycle;Signal;HPM_P1;HPM_P2
2022/08/23 03:01:49;;;;;;;0.90;0.60;;;19.80;64.50;;;;;;5572242;22;20856;-74
2022/08/23 03:04:15;;;;;;;0.80;0.60;;;19.80;64.40;;;;;;5034217;28;20892;-74
2022/08/23 03:06:42;;;;;;;0.80;0.70;;;19.90;64.60;;;;;;5034724;28;20501;-74
2022/08/23 03:09:10;;;;;;;0.70;0.60;;;19.80;64.70;;;;;;5034607;28;20456;-75
2022/08/23 03:11:37;;;;;;;0.83;0.70;;;19.80;64.90;;;;;;5034597;28;20476;-75
2022/08/23 03:14:04;;;;;;;0.80;0.73;;;19.70;65.00;;;;;;5034015;28;20976;-74
2022/08/23 03:16:31;;;;;;;0.70;0.60;;;19.70;65.00;;;;;;5035662;28;21012;-74
2022/08/23 03:19:01;;;;;;;0.70;0.70;;;19.60;65.20;;;;;;5034400;28;20455;-74
2022/08/23 03:21:27;;;;;;;0.80;0.70;;;19.50;65.20;;;;;;5034145;28;20467;-74
2022/08/23 03:23:54;;;;;;;0.70;0.70;;;19.50;65.30;;;;;;5034009;28;20879;-74
2022/08/23 03:26:21;;;;;;;1.03;0.93;;;19.50;65.50;;;;;;5033531;28;20858;-74
2022/08/23 03:28:47;;;;;;;0.70;0.60;;;19.50;65.40;;;;;;5034360;28;20543;-74
2022/08/23 03:31:15;;;;;;;0.70;0.60;;;19.50;65.30;;;;;;5034088;28;20551;-74
2022/08/23 03:33:43;;;;;;;1.30;0.70;;;19.40;65.50;;;;;;5034313;28;20444;-74
2022/08/23 03:36:12;;;;;;;0.70;0.60;;;19.40;65.60;;;;;;5034173;28;20440;-74
2022/08/23 03:38:40;;;;;;;0.80;0.67;;;19.40;65.70;;;;;;5034224;28;20939;-74
2022/08/23 03:41:08;;;;;;;0.70;0.67;;;19.40;65.70;;;;;;5034062;28;20472;-74
2022/08/23 03:43:35;;;;;;;0.80;0.60;;;19.40;65.70;;;;;;5033651;28;20947;-74
2022/08/23 03:46:02;;;;;;;0.70;0.60;;;19.40;65.80;;;;;;5033978;28;20529;-74
2022/08/23 03:48:29;;;;;;;0.80;0.60;;;19.30;65.80;;;;;;5033953;28;20447;-74
2022/08/23 03:50:55;;;;;;;0.77;0.70;;;19.30;66.00;;;;;;5033514;28;20990;-74
2022/08/23 03:53:24;;;;;;;0.70;0.70;;;19.30;66.10;;;;;;5033685;28;20509;-74
2022/08/23 03:55:52;;;;;;;0.73;0.70;;;19.30;66.20;;;;;;5033877;28;20443;-74
2022/08/23 03:58:20;;;;;;;0.70;0.60;;;19.20;66.30;;;;;;5033646;28;20455;-74
2022/08/23 04:00:47;;;;;;;0.70;0.70;;;19.10;66.40;;;;;;5033532;28;20475;-75
2022/08/23 04:03:13;;;;;;;0.70;0.63;;;19.10;66.40;;;;;;5034078;28;20494;-74
2022/08/23 04:05:40;;;;;;;0.70;0.67;;;19.10;66.30;;;;;;5033572;28;20487;-74
2022/08/23 04:08:08;;;;;;;0.70;0.60;;;19.10;66.40;;;;;;5033474;28;20509;-74
2022/08/23 04:10:37;;;;;;;0.70;0.60;;;19.10;66.40;;;;;;5033777;28;20487;-74
2022/08/23 04:13:05;;;;;;;0.70;0.70;;;19.10;66.30;;;;;;5033838;28;20447;-74
2022/08/23 04:15:32;;;;;;;0.70;0.60;;;19.00;66.40;;;;;;5033625;28;20447;-74
2022/08/23 04:17:59;;;;;;;0.80;0.80;;;19.00;66.50;;;;;;5033834;28;20452;-74
2022/08/23 04:20:26;;;;;;;0.70;0.60;;;19.00;66.50;;;;;;5033710;28;20534;-74
2022/08/23 04:22:53;;;;;;;0.70;0.70;;;19.00;66.40;;;;;;5033646;28;20443;-74
2022/08/23 04:25:20;;;;;;;0.90;0.60;;;19.00;66.40;;;;;;5033389;28;20877;-74
2022/08/23 04:27:48;;;;;;;0.87;0.70;;;19.00;66.60;;;;;;5033205;28;20942;-74
2022/08/23 04:30:15;;;;;;;2.13;0.70;;;19.00;66.80;;;;;;5033539;28;20873;-74
2022/08/23 04:32:42;;;;;;;1.43;0.73;;;19.00;66.70;;;;;;5033024;28;20988;-74
2022/08/23 04:35:09;;;;;;;0.70;0.60;;;19.00;66.70;;;;;;5033134;28;20959;-74
2022/08/23 04:37:35;;;;;;;0.70;0.60;;;19.00;66.80;;;;;;5033696;28;20502;-74
2022/08/23 04:42:49;;;;;;;0.70;0.70;;;18.90;67.30;;;;;;5036906;28;20818;-74
2022/08/23 04:45:15;;;;;;;0.80;0.60;;;18.90;67.50;;;;;;5036733;28;21159;-74
2022/08/23 04:47:43;;;;;;;0.80;0.70;;;18.90;67.30;;;;;;5036977;28;20509;-74
2022/08/23 04:50:11;;;;;;;0.70;0.70;;;19.00;67.10;;;;;;5036981;28;20450;-74
2022/08/23 04:52:38;;;;;;;0.80;0.70;;;19.00;66.90;;;;;;5036736;28;20475;-74
2022/08/23 04:55:05;;;;;;;0.70;0.60;;;19.10;67.10;;;;;;5036927;28;20443;-74
2022/08/23 04:57:32;;;;;;;0.70;0.67;;;19.10;67.10;;;;;;5036257;28;20840;-74
2022/08/23 05:00:00;;;;;;;0.70;0.60;;;19.00;67.40;;;;;;5036640;28;20505;-74
2022/08/23 05:02:27;;;;;;;0.70;0.70;;;18.90;67.70;;;;;;5036343;28;20479;-74
2022/08/23 05:04:54;;;;;;;0.73;0.67;;;19.00;67.20;;;;;;5036513;28;20644;-74
2022/08/23 05:07:20;;;;;;;0.83;0.83;;;19.10;66.90;;;;;;5036705;28;20523;-74
2022/08/23 05:09:47;;;;;;;0.80;0.70;;;19.20;66.90;;;;;;5036188;28;20447;-74
2022/08/23 05:12:14;;;;;;;0.70;0.67;;;19.30;66.60;;;;;;5036522;28;20463;-74
2022/08/23 05:14:40;;;;;;;0.70;0.60;;;19.40;66.50;;;;;;5036554;28;20530;-74
2022/08/23 05:17:08;;;;;;;0.80;0.70;;;19.50;66.20;;;;;;5036452;28;20451;-74
2022/08/23 05:19:35;;;;;;;0.80;0.80;;;19.60;66.00;;;;;;5036671;28;20494;-76
2022/08/23 05:22:02;;;;;;;0.70;0.70;;;19.70;66.00;;;;;;5037838;28;20464;-75
2022/08/23 05:24:28;;;;;;;0.70;0.70;;;19.80;66.10;;;;;;5037725;28;20494;-74
2022/08/23 05:26:55;;;;;;;0.70;0.70;;;20.00;65.70;;;;;;5037441;28;20494;-74
2022/08/23 05:29:22;;;;;;;0.80;0.60;;;20.10;65.40;;;;;;5037470;28;20448;-74
2022/08/23 05:31:48;;;;;;;0.80;0.70;;;20.30;65.50;;;;;;5037415;28;20467;-75
2022/08/23 05:34:16;;;;;;;0.80;0.60;;;20.40;65.00;;;;;;5036656;28;20447;-74
2022/08/23 05:36:43;;;;;;;0.80;0.70;;;20.60;65.80;;;;;;5035863;28;20486;-75
2022/08/23 05:39:10;;;;;;;0.77;0.70;;;20.70;65.20;;;;;;5036226;28;20452;-75
2022/08/23 05:41:38;;;;;;;0.70;0.60;;;20.90;65.30;;;;;;5036031;28;21073;-75
2022/08/23 05:44:06;;;;;;;0.80;0.70;;;21.00;64.70;;;;;;5036115;28;20457;-74
2022/08/23 05:46:33;;;;;;;0.90;0.70;;;21.10;64.60;;;;;;5036009;28;20483;-74
2022/08/23 05:48:59;;;;;;;0.70;0.60;;;21.20;64.10;;;;;;5035513;28;20951;-74
2022/08/23 05:51:29;;;;;;;0.90;0.70;;;21.40;64.50;;;;;;5035385;28;20472;-74
2022/08/23 05:53:59;;;;;;;0.70;0.70;;;21.40;63.90;;;;;;5035714;28;20969;-74
2022/08/23 05:56:28;;;;;;;1.00;0.60;;;21.40;64.10;;;;;;5035683;28;20443;-74
2022/08/23 05:58:57;;;;;;;0.90;0.70;;;21.40;64.00;;;;;;5036213;28;20456;-74
2022/08/23 06:01:24;;;;;;;0.80;0.67;;;21.40;64.00;;;;;;5035562;28;20511;-74
2022/08/23 06:03:51;;;;;;;0.70;0.60;;;21.60;63.80;;;;;;5036060;28;20455;-74
2022/08/23 06:06:19;;;;;;;0.97;0.70;;;21.60;63.20;;;;;;5036039;28;20856;-75
2022/08/23 06:08:48;;;;;;;0.70;0.60;;;21.80;63.20;;;;;;5035821;28;20451;-75
2022/08/23 06:11:17;;;;;;;0.73;0.60;;;22.00;62.80;;;;;;5035273;28;20521;-74
2022/08/23 06:13:46;;;;;;;0.70;0.70;;;22.20;62.70;;;;;;5035098;28;20890;-74
2022/08/23 06:16:15;;;;;;;0.80;0.70;;;22.40;62.90;;;;;;5034995;28;20484;-74
2022/08/23 06:18:43;;;;;;;0.70;0.60;;;22.60;61.50;;;;;;5034935;28;20943;-74
2022/08/23 06:21:12;;;;;;;0.77;0.60;;;22.70;61.80;;;;;;5035112;28;20472;-74
2022/08/23 06:23:39;;;;;;;0.80;0.77;;;22.90;61.30;;;;;;5035153;28;20455;-74
2022/08/23 06:26:11;;;;;;;0.80;0.70;;;23.00;60.40;;;;;;5035017;28;20487;-74
2022/08/23 06:28:38;;;;;;;0.80;0.67;;;22.80;60.80;;;;;;5035143;28;20427;-74
2022/08/23 06:31:05;;;;;;;0.70;0.60;;;22.90;60.90;;;;;;5035002;28;20463;-75
2022/08/23 06:33:31;;;;;;;0.70;0.70;;;22.90;60.90;;;;;;5034904;28;20456;-74
2022/08/23 06:36:03;;;;;;;0.70;0.70;;;23.10;61.00;;;;;;5034554;28;20808;-74
2022/08/23 06:38:31;;;;;;;0.77;0.77;;;23.40;60.10;;;;;;5034928;28;20461;-74
2022/08/23 06:41:02;;;;;;;0.70;0.60;;;23.50;59.50;;;;;;5035348;28;20547;-74
2022/08/23 06:43:31;;;;;;;0.70;0.70;;;23.90;59.30;;;;;;5034453;28;20455;-74
2022/08/23 06:46:11;;;;;;;0.70;0.70;;;24.10;58.90;;;;;;5034363;28;20912;-74
2022/08/23 06:48:38;;;;;;;1.33;0.60;;;24.30;58.20;;;;;;5034422;28;20965;-78
2022/08/23 06:51:10;;;;;;;0.90;0.70;;;24.20;59.00;;;;;;5035081;28;20471;-74
2022/08/23 06:53:37;;;;;;;0.80;0.70;;;24.30;58.00;;;;;;5034684;28;20486;-74
2022/08/23 06:56:04;;;;;;;0.80;0.60;;;23.90;59.00;;;;;;5034553;28;20443;-74
2022/08/23 06:58:32;;;;;;;0.80;0.70;;;23.90;59.10;;;;;;5034550;28;20448;-75
2022/08/23 07:01:09;;;;;;;0.70;0.60;;;23.80;59.50;;;;;;5033867;28;20991;-74
2022/08/23 07:03:36;;;;;;;0.80;0.70;;;24.00;59.20;;;;;;5034515;28;20436;-74
2022/08/23 07:06:03;;;;;;;0.80;0.80;;;24.10;58.80;;;;;;5034342;28;20525;-74
2022/08/23 07:08:29;;;;;;;0.70;0.60;;;24.10;58.30;;;;;;5034499;28;20486;-75
2022/08/23 07:10:56;;;;;;;0.80;0.70;;;24.10;58.70;;;;;;5034201;28;20467;-74
2022/08/23 07:13:23;;;;;;;0.70;0.60;;;23.80;59.50;;;;;;5033969;28;20955;-74
2022/08/23 07:15:51;;;;;;;0.70;0.70;;;24.00;58.40;;;;;;5033816;28;20795;-74
2022/08/23 07:18:18;;;;;;;0.70;0.60;;;23.70;59.20;;;;;;5034092;28;20498;-74
2022/08/23 07:20:45;;;;;;;1.00;0.90;;;23.90;60.00;;;;;;5033741;28;20873;-74
2022/08/23 07:23:12;;;;;;;0.70;0.60;;;23.90;59.50;;;;;;5034147;28;20443;-74
2022/08/23 07:25:40;;;;;;;0.70;0.70;;;24.10;58.20;;;;;;5034094;28;20857;-75
2022/08/23 07:28:06;;;;;;;0.70;0.60;;;24.20;59.00;;;;;;5033959;28;20543;-74
2022/08/23 07:30:33;;;;;;;0.70;0.60;;;24.40;57.60;;;;;;5033850;28;20451;-74
2022/08/23 07:33:01;;;;;;;0.70;0.60;;;24.80;57.60;;;;;;5033654;28;20826;-75
2022/08/23 07:35:27;;;;;;;0.70;0.60;;;24.60;57.00;;;;;;5033838;28;20451;-74
2022/08/23 07:37:56;;;;;;;0.70;0.63;;;24.90;55.30;;;;;;5033512;28;20797;-74
2022/08/23 07:40:22;;;;;;;0.70;0.60;;;25.40;55.70;;;;;;5033694;28;20865;-74
2022/08/23 07:42:49;;;;;;;1.33;0.70;;;25.70;54.20;;;;;;5033746;28;20450;-74
2022/08/23 07:45:16;;;;;;;0.70;0.70;;;25.80;54.20;;;;;;5033729;28;21026;-75
2022/08/23 07:47:43;;;;;;;0.70;0.60;;;26.00;53.00;;;;;;5033953;28;20443;-74
2022/08/23 07:50:11;;;;;;;0.70;0.60;;;26.10;51.70;;;;;;5033775;28;20810;-74
2022/08/23 07:52:38;;;;;;;1.30;0.80;;;26.20;51.60;;;;;;5033224;28;21044;-75
2022/08/23 07:55:06;;;;;;;0.73;0.60;;;26.20;50.80;;;;;;5033556;28;20459;-74
2022/08/23 07:57:32;;;;;;;0.70;0.60;;;26.00;49.40;;;;;;5033578;28;20435;-75
2022/08/23 07:59:59;;;;;;;0.80;0.70;;;25.90;49.20;;;;;;5033294;28;20444;-74
2022/08/23 08:02:26;;;;;;;0.80;0.70;;;26.00;49.30;;;;;;5033262;28;20475;-75
2022/08/23 08:04:52;;;;;;;0.73;0.60;;;26.10;50.00;;;;;;5033447;28;20442;-75
2022/08/23 08:07:21;;;;;;;0.80;0.80;;;26.10;49.40;;;;;;5033355;28;20541;-75
2022/08/23 08:09:47;;;;;;;0.70;0.50;;;26.40;48.30;;;;;;5033571;28;20490;-74
2022/08/23 08:12:14;;;;;;;0.80;0.70;;;26.40;48.70;;;;;;5033769;28;20514;-74
2022/08/23 08:14:41;;;;;;;0.80;0.70;;;26.50;47.50;;;;;;5039883;28;20455;-75
2022/08/23 08:17:07;;;;;;;0.70;0.63;;;26.40;50.70;;;;;;5040058;28;20459;-75
2022/08/23 08:19:34;;;;;;;0.80;0.70;;;26.40;50.40;;;;;;5040022;28;20447;-75
2022/08/23 08:22:01;;;;;;;0.80;0.60;;;26.40;49.50;;;;;;5039632;28;20476;-75
2022/08/23 08:24:29;;;;;;;0.70;0.50;;;26.30;48.80;;;;;;5039922;28;20450;-75
2022/08/23 08:26:55;;;;;;;0.70;0.60;;;26.30;50.50;;;;;;5039954;28;20494;-75
2022/08/23 08:29:22;;;;;;;0.70;0.57;;;26.30;49.40;;;;;;5039950;28;20454;-75
2022/08/23 08:31:50;;;;;;;0.80;0.70;;;26.30;48.90;;;;;;5039934;28;20494;-75
2022/08/23 08:34:17;;;;;;;0.70;0.60;;;26.20;49.60;;;;;;5039872;28;20502;-75
2022/08/23 08:36:47;;;;;;;0.70;0.57;;;26.00;49.90;;;;;;5039943;28;20526;-75
2022/08/23 08:39:18;;;;;;;0.80;0.60;;;26.10;50.80;;;;;;5040001;28;20439;-75
2022/08/23 08:41:58;;;;;;;0.70;0.50;;;25.90;50.80;;;;;;5039602;28;21025;-75
2022/08/23 08:44:35;;;;;;;0.90;0.80;;;26.30;50.30;;;;;;5039864;28;20427;-75
2022/08/23 08:47:08;;;;;;;0.70;0.60;;;26.40;49.40;;;;;;5039451;28;20973;-75
2022/08/23 08:49:39;;;;;;;1.13;0.60;;;26.50;47.40;;;;;;5039832;28;20794;-75
2022/08/23 08:52:14;;;;;;;0.80;0.50;;;26.60;46.70;;;;;;5039779;28;20474;-75
2022/08/23 08:54:44;;;;;;;0.70;0.50;;;26.80;48.20;;;;;;5039774;28;20423;-75
2022/08/23 08:57:15;;;;;;;0.73;0.50;;;27.20;48.20;;;;;;5040488;28;20443;-75
2022/08/23 08:59:50;;;;;;;0.70;0.60;;;27.40;47.20;;;;;;5039796;28;20432;-75
2022/08/23 09:02:20;;;;;;;0.80;0.80;;;27.60;46.40;;;;;;5039176;28;20482;-75
2022/08/23 09:04:47;;;;;;;0.70;0.60;;;27.80;46.40;;;;;;5039606;28;20529;-75
2022/08/23 09:07:21;;;;;;;0.70;0.60;;;27.40;45.60;;;;;;5039519;28;20598;-75
2022/08/23 09:10:21;;;;;;;0.70;0.60;;;27.30;46.30;;;;;;5039586;28;20436;-75
2022/08/23 09:12:59;;;;;;;0.70;0.50;;;27.30;46.20;;;;;;5039681;28;20514;-75
2022/08/23 09:15:36;;;;;;;0.90;0.70;;;27.40;46.20;;;;;;5041330;28;20434;-75
2022/08/23 09:18:08;;;;;;;0.70;0.57;;;27.60;46.80;;;;;;5040330;28;20442;-75
2022/08/23 09:20:35;;;;;;;0.70;0.60;;;27.70;45.90;;;;;;5040377;28;20522;-75
2022/08/23 09:23:08;;;;;;;0.70;0.60;;;27.60;45.70;;;;;;5040185;28;20447;-75
2022/08/23 09:25:35;;;;;;;0.70;0.60;;;27.60;46.60;;;;;;5036547;28;20428;-75
2022/08/23 09:28:04;;;;;;;0.70;0.60;;;27.80;46.00;;;;;;5036948;28;20483;-75
2022/08/23 09:30:51;;;;;;;0.70;0.60;;;27.90;45.50;;;;;;5036993;28;20865;-75
2022/08/23 09:33:19;;;;;;;0.70;0.60;;;28.20;46.10;;;;;;5036902;28;20435;-75
2022/08/23 09:36:04;;;;;;;0.90;0.67;;;28.50;45.40;;;;;;5036751;28;20448;-75
2022/08/23 09:38:30;;;;;;;1.27;0.73;;;28.60;45.60;;;;;;5037110;28;20514;-76
2022/08/23 09:40:57;;;;;;;0.70;0.60;;;28.70;45.30;;;;;;5036831;28;20463;-75
2022/08/23 09:43:30;;;;;;;0.80;0.67;;;28.40;46.50;;;;;;5036840;28;20546;-75
2022/08/23 09:46:01;;;;;;;0.70;0.60;;;28.40;45.60;;;;;;5036923;28;20448;-75
2022/08/23 09:48:35;;;;;;;0.70;0.70;;;28.60;45.80;;;;;;5036698;28;20443;-75
2022/08/23 09:51:07;;;;;;;0.70;0.60;;;28.10;46.50;;;;;;5036659;28;20467;-76
2022/08/23 09:53:35;;;;;;;0.70;0.63;;;27.80;46.70;;;;;;5036363;28;20440;-75
2022/08/23 09:56:13;;;;;;;0.80;0.70;;;27.80;46.10;;;;;;5035684;28;20510;-75
2022/08/23 09:58:43;;;;;;;0.80;0.60;;;27.80;47.10;;;;;;5035667;28;20455;-75
2022/08/23 10:01:13;;;;;;;0.70;0.60;;;27.90;46.80;;;;;;5035136;28;20971;-75
2022/08/23 10:03:41;;;;;;;0.70;0.60;;;28.00;46.90;;;;;;5035493;28;20505;-74
2022/08/23 10:06:10;;;;;;;0.80;0.60;;;28.10;45.90;;;;;;5035331;28;20538;-75
2022/08/23 10:08:50;;;;;;;0.90;0.70;;;28.30;46.00;;;;;;5036012;28;20451;-75
2022/08/23 10:11:19;;;;;;;0.70;0.60;;;28.20;46.30;;;;;;5035310;28;20494;-76
2022/08/23 10:13:47;;;;;;;0.70;0.60;;;28.20;45.10;;;;;;5035049;28;20868;-76
2022/08/23 10:16:27;;;;;;;0.80;0.60;;;27.90;44.90;;;;;;5035304;28;20447;-75
2022/08/23 10:19:03;;;;;;;0.70;0.60;;;28.10;45.50;;;;;;5035342;28;20432;-74
2022/08/23 10:21:37;;;;;;;0.80;0.80;;;28.50;45.20;;;;;;5035192;28;20529;-75
2022/08/23 10:24:16;;;;;;;0.80;0.60;;;28.70;44.60;;;;;;5035197;28;20432;-75
2022/08/23 10:26:50;;;;;;;0.70;0.60;;;29.10;44.50;;;;;;5034815;28;20916;-76
2022/08/23 10:29:36;;;;;;;0.70;0.60;;;29.00;43.00;;;;;;5035181;28;20435;-76
2022/08/23 10:32:12;;;;;;;0.80;0.63;;;28.50;43.60;;;;;;5035799;28;20863;-75
2022/08/23 10:34:48;;;;;;;0.70;0.60;;;28.80;44.30;;;;;;5035076;28;20432;-75
2022/08/23 10:37:42;;;;;;;0.80;0.60;;;28.90;43.10;;;;;;5034775;28;20435;-75
2022/08/23 10:40:18;;;;;;;0.90;0.70;;;29.20;41.80;;;;;;5035010;28;20428;-75
2022/08/23 10:42:53;;;;;;;0.70;0.60;;;29.30;42.20;;;;;;5034558;28;20837;-76
2022/08/23 10:45:28;;;;;;;0.80;0.60;;;29.30;41.80;;;;;;5034800;28;20510;-75
2022/08/23 10:48:08;;;;;;;1.20;0.60;;;29.30;41.90;;;;;;5034727;28;20471;-75
2022/08/23 10:50:42;;;;;;;0.70;0.60;;;29.30;42.30;;;;;;5035460;28;20428;-76
2022/08/23 10:53:14;;;;;;;0.80;0.70;;;29.40;40.70;;;;;;5035479;28;20424;-76
2022/08/23 10:56:02;;;;;;;0.80;0.60;;;29.70;40.40;;;;;;5034572;28;20432;-76
2022/08/23 10:58:35;;;;;;;0.80;0.70;;;29.90;40.30;;;;;;5034837;28;20953;-76
2022/08/23 11:01:03;;;;;;;0.77;0.60;;;29.90;39.80;;;;;;5034350;28;20598;-76
2022/08/23 11:03:33;;;;;;;0.70;0.60;;;29.80;39.60;;;;;;5034480;28;20911;-76
2022/08/23 11:06:24;;;;;;;0.80;0.70;;;30.00;40.00;;;;;;5034501;28;20864;-76
2022/08/23 11:08:59;;;;;;;0.70;0.60;;;30.20;40.00;;;;;;5034685;28;20531;-75
2022/08/23 11:11:38;;;;;;;0.70;0.60;;;30.10;38.60;;;;;;5034313;28;20550;-76
2022/08/23 11:14:08;;;;;;;0.70;0.70;;;30.30;38.50;;;;;;5034343;28;20424;-76
2022/08/23 11:16:39;;;;;;;0.70;0.60;;;30.10;37.60;;;;;;5034378;28;20466;-75
2022/08/23 11:19:12;;;;;;;0.80;0.60;;;29.80;37.80;;;;;;5034047;28;20427;-75
2022/08/23 11:21:47;;;;;;;0.80;0.70;;;29.90;38.60;;;;;;5034239;28;20468;-75
2022/08/23 11:24:47;;;;;;;1.20;0.70;;;30.10;39.80;;;;;;5034098;28;20428;-76
2022/08/23 11:27:26;;;;;;;0.70;0.60;;;30.40;39.40;;;;;;5034014;28;20558;-77
2022/08/23 11:29:53;;;;;;;0.73;0.60;;;30.30;38.20;;;;;;5034017;28;20542;-75
2022/08/23 11:32:35;;;;;;;1.00;0.60;;;29.80;38.40;;;;;;5034118;28;20475;-75
2022/08/23 11:35:08;;;;;;;0.70;0.67;;;29.70;38.10;;;;;;5033794;28;20912;-76
2022/08/23 11:37:57;;;;;;;1.00;0.70;;;30.00;38.60;;;;;;5034308;28;20523;-76
2022/08/23 11:40:55;;;;;;;0.70;0.60;;;29.70;39.10;;;;;;5034866;28;20424;-77
2022/08/23 11:43:26;;;;;;;0.70;0.60;;;29.80;38.40;;;;;;5033935;28;20896;-76
2022/08/23 11:45:53;;;;;;;0.80;0.60;;;29.70;38.70;;;;;;5033971;28;20451;-75
2022/08/23 11:48:37;;;;;;;0.80;0.70;;;30.10;39.00;;;;;;5033226;28;20537;-76
2022/08/23 11:51:26;;;;;;;0.80;0.60;;;30.20;37.90;;;;;;5033690;28;20475;-76
2022/08/23 11:54:27;;;;;;;0.70;0.60;;;30.10;38.50;;;;;;5033989;28;20467;-76
2022/08/23 11:57:14;;;;;;;0.70;0.60;;;30.20;38.20;;;;;;4982836;28;20818;-75
2022/08/23 12:00:07;;;;;;;0.90;0.60;;;30.10;38.50;;;;;;5033822;28;20530;-75
2022/08/23 12:03:00;;;;;;;0.70;0.50;;;30.20;38.10;;;;;;5033261;28;20545;-75
2022/08/23 12:06:02;;;;;;;0.80;0.70;;;29.90;39.00;;;;;;5033927;28;20431;-75
2022/08/23 12:08:48;;;;;;;0.70;0.60;;;29.90;39.40;;;;;;5033706;28;20498;-75
2022/08/23 12:11:16;;;;;;;0.80;0.70;;;30.10;39.00;;;;;;5033888;28;20467;-75
2022/08/23 12:14:00;;;;;;;0.80;0.60;;;30.10;38.70;;;;;;5033728;28;20444;-75
2022/08/23 12:16:37;;;;;;;0.70;0.60;;;30.20;39.50;;;;;;5033419;28;20908;-75
2022/08/23 12:19:11;;;;;;;0.80;0.70;;;30.30;38.60;;;;;;5033845;28;20932;-76
2022/08/23 12:21:51;;;;;;;0.80;0.60;;;30.40;39.10;;;;;;5033781;28;20514;-77
2022/08/23 12:24:24;;;;;;;0.70;0.60;;;30.30;38.30;;;;;;5034489;28;20432;-76
2022/08/23 12:26:59;;;;;;;0.70;0.60;;;29.90;39.20;;;;;;5034161;28;20481;-76
2022/08/23 12:29:37;;;;;;;0.70;0.60;;;29.70;39.70;;;;;;5033550;28;20864;-75
2022/08/23 12:32:13;;;;;;;0.70;0.60;;;29.80;40.20;;;;;;5033262;28;20916;-76
2022/08/23 12:34:52;;;;;;;0.90;0.70;;;29.50;39.80;;;;;;5033826;28;20444;-76
2022/08/23 12:37:30;;;;;;;0.90;0.60;;;29.60;39.80;;;;;;5033619;28;20899;-75
2022/08/23 12:40:00;;;;;;;0.80;0.70;;;29.80;40.10;;;;;;5033665;28;20431;-75
2022/08/23 12:42:29;;;;;;;1.30;0.60;;;30.10;39.30;;;;;;5033776;28;20471;-75
2022/08/23 12:45:02;;;;;;;0.70;0.63;;;30.30;39.10;;;;;;5033242;28;20811;-75
2022/08/23 12:47:29;;;;;;;0.80;0.70;;;30.50;40.80;;;;;;5033540;28;20863;-75
2022/08/23 12:49:59;;;;;;;0.70;0.60;;;30.70;38.90;;;;;;5033042;28;21008;-75
2022/08/23 12:52:30;;;;;;;0.70;0.50;;;30.70;38.20;;;;;;5033165;28;20472;-76
2022/08/23 12:54:57;;;;;;;0.70;0.60;;;30.50;38.00;;;;;;5033630;28;20450;-75
2022/08/23 12:57:32;;;;;;;0.70;0.60;;;30.20;38.70;;;;;;5032891;28;20878;-75
2022/08/23 13:00:07;;;;;;;0.70;0.60;;;30.30;38.20;;;;;;5036003;28;20450;-74
2022/08/23 13:02:35;;;;;;;0.80;0.70;;;30.10;38.90;;;;;;5036770;28;20485;-75
2022/08/23 13:05:08;;;;;;;0.70;0.60;;;30.10;39.40;;;;;;5036854;28;20455;-75
2022/08/23 13:07:37;;;;;;;0.80;0.60;;;30.30;39.50;;;;;;5036534;28;21072;-75
2022/08/23 13:10:06;;;;;;;0.80;0.60;;;30.00;39.00;;;;;;5036693;28;20451;-75
2022/08/23 13:12:33;;;;;;;0.80;0.70;;;30.20;38.60;;;;;;5036677;28;20833;-75
2022/08/23 13:15:01;;;;;;;0.70;0.50;;;30.30;39.50;;;;;;5036414;28;20444;-76
2022/08/23 13:17:35;;;;;;;0.80;0.60;;;30.40;38.90;;;;;;5036638;28;20550;-76
2022/08/23 13:20:22;;;;;;;0.70;0.60;;;30.30;38.70;;;;;;5036836;28;20440;-75
2022/08/23 13:22:59;;;;;;;0.70;0.60;;;30.00;39.80;;;;;;5036332;28;20938;-75
2022/08/23 13:25:28;;;;;;;0.70;0.50;;;30.10;38.50;;;;;;5036362;28;20439;-75
2022/08/23 13:27:57;;;;;;;0.70;0.60;;;30.10;38.80;;;;;;5036401;28;20483;-76
2022/08/23 13:30:26;;;;;;;0.70;0.60;;;30.20;39.40;;;;;;5036217;28;20521;-76
2022/08/23 13:33:20;;;;;;;0.80;0.60;;;30.40;39.00;;;;;;5036348;28;20452;-76
2022/08/23 13:35:48;;;;;;;0.80;0.60;;;30.70;39.90;;;;;;5036573;28;20464;-76
2022/08/23 13:38:22;;;;;;;0.70;0.70;;;30.20;39.70;;;;;;5036125;28;20440;-76
2022/08/23 13:41:00;;;;;;;1.00;0.70;;;30.20;39.60;;;;;;5036262;28;20467;-75
2022/08/23 13:43:32;;;;;;;0.70;0.60;;;30.10;40.60;;;;;;5036269;28;20439;-74
2022/08/23 13:46:01;;;;;;;0.87;0.70;;;30.30;39.40;;;;;;5036145;28;20476;-74
2022/08/23 13:48:30;;;;;;;0.70;0.60;;;30.50;39.60;;;;;;5035945;28;20842;-77
2022/08/23 13:51:20;;;;;;;0.90;0.70;;;30.40;39.90;;;;;;5036198;28;21001;-76
2022/08/23 13:53:48;;;;;;;0.70;0.60;;;30.60;39.90;;;;;;5037189;28;20530;-76
2022/08/23 13:56:15;;;;;;;0.70;0.60;;;30.90;39.30;;;;;;5038852;28;20452;-76
2022/08/23 13:58:42;;;;;;;0.70;0.63;;;31.00;39.50;;;;;;5035844;28;20527;-75
2022/08/23 14:01:19;;;;;;;1.33;0.63;;;31.20;39.40;;;;;;5035308;28;20533;-77
2022/08/23 14:03:46;;;;;;;0.70;0.60;;;31.40;39.00;;;;;;5035756;28;20505;-77
2022/08/23 14:06:13;;;;;;;0.80;0.70;;;31.30;39.10;;;;;;5036240;28;20470;-77
2022/08/23 14:08:40;;;;;;;0.70;0.50;;;30.90;39.90;;;;;;5036482;28;20506;-76
2022/08/23 14:11:09;;;;;;;0.70;0.60;;;30.70;40.90;;;;;;5035153;28;20525;-76
2022/08/23 14:13:38;;;;;;;0.90;0.77;;;31.00;40.20;;;;;;5035162;28;20942;-76
2022/08/23 14:16:07;;;;;;;0.80;0.70;;;31.00;39.80;;;;;;5035118;28;20868;-75
2022/08/23 14:18:34;;;;;;;0.70;0.70;;;31.30;39.60;;;;;;5035434;28;20457;-75
2022/08/23 14:21:02;;;;;;;0.70;0.50;;;31.40;38.80;;;;;;5035201;28;20471;-75
2022/08/23 14:23:28;;;;;;;0.70;0.60;;;31.40;39.50;;;;;;5035504;28;20506;-75
2022/08/23 14:25:57;;;;;;;1.10;0.60;;;31.60;38.20;;;;;;5035540;28;20447;-76
2022/08/23 14:28:28;;;;;;;1.00;0.80;;;31.80;38.60;;;;;;5035262;28;20810;-75
2022/08/23 14:30:55;;;;;;;0.80;0.60;;;31.70;37.80;;;;;;5035463;28;20555;-75
2022/08/23 14:33:22;;;;;;;1.27;0.70;;;31.50;38.00;;;;;;5035287;28;20451;-75
2022/08/23 14:35:51;;;;;;;0.70;0.60;;;31.30;39.40;;;;;;5034958;28;20443;-76
2022/08/23 14:38:17;;;;;;;1.10;0.70;;;31.70;38.50;;;;;;5035283;28;20939;-77
2022/08/23 14:40:49;;;;;;;0.80;0.60;;;31.40;38.30;;;;;;5035040;28;20471;-75
2022/08/23 14:43:16;;;;;;;0.70;0.60;;;31.50;38.50;;;;;;5034949;28;20436;-77
2022/08/23 14:45:44;;;;;;;0.80;0.70;;;31.70;38.40;;;;;;5035539;28;20451;-76
2022/08/23 14:48:11;;;;;;;0.70;0.60;;;31.80;38.40;;;;;;5035540;28;20479;-74
2022/08/23 14:50:38;;;;;;;0.80;0.70;;;31.70;38.00;;;;;;5034722;28;20448;-74
2022/08/23 14:53:06;;;;;;;0.70;0.60;;;31.90;38.30;;;;;;5034663;28;20509;-74
2022/08/23 14:55:32;;;;;;;0.73;0.63;;;32.30;37.90;;;;;;5034222;28;20817;-73
2022/08/23 14:57:59;;;;;;;0.70;0.60;;;33.00;37.20;;;;;;5034576;28;20497;-74
2022/08/23 15:00:26;;;;;;;0.80;0.70;;;33.60;35.70;;;;;;5034509;28;20474;-75
2022/08/23 15:02:54;;;;;;;0.70;0.53;;;34.00;35.70;;;;;;5034276;28;20459;-75
2022/08/23 15:05:21;;;;;;;0.70;0.60;;;34.80;34.80;;;;;;5034278;28;20472;-75
2022/08/23 15:07:47;;;;;;;0.70;0.60;;;34.80;34.10;;;;;;5035512;28;20451;-75
2022/08/23 15:10:15;;;;;;;0.70;0.50;;;35.70;34.10;;;;;;5034307;28;20790;-75
2022/08/23 15:12:42;;;;;;;0.70;0.60;;;36.60;32.80;;;;;;5034177;28;20475;-75
2022/08/23 15:15:18;;;;;;;0.70;0.60;;;37.60;31.70;;;;;;5035166;28;20443;-77
2022/08/23 15:17:49;;;;;;;0.80;0.70;;;37.70;31.90;;;;;;5035326;28;20435;-76
2022/08/23 15:20:17;;;;;;;0.70;0.63;;;37.60;31.40;;;;;;5034313;28;20502;-75
2022/08/23 15:22:44;;;;;;;0.70;0.50;;;36.50;32.70;;;;;;5033168;28;20472;-75
2022/08/23 15:25:10;;;;;;;0.90;0.60;;;36.00;33.40;;;;;;5033918;28;20501;-75
2022/08/23 15:27:37;;;;;;;0.90;0.70;;;35.40;34.10;;;;;;5033754;28;20939;-75
2022/08/23 15:30:05;;;;;;;0.70;0.60;;;34.80;34.60;;;;;;5033988;28;20483;-75
2022/08/23 15:32:32;;;;;;;0.70;0.67;;;34.30;35.10;;;;;;5033570;28;20982;-73
2022/08/23 15:34:58;;;;;;;0.70;0.60;;;33.90;36.10;;;;;;5033926;28;20447;-73
2022/08/23 15:37:26;;;;;;;0.70;0.60;;;34.00;35.60;;;;;;5034038;28;20448;-73
2022/08/23 15:39:53;;;;;;;0.70;0.60;;;34.30;35.10;;;;;;5034086;28;20792;-74
2022/08/23 15:42:20;;;;;;;0.70;0.50;;;34.10;35.30;;;;;;5033372;28;20890;-74
2022/08/23 15:44:46;;;;;;;0.87;0.70;;;33.50;36.30;;;;;;5034055;28;20451;-73
2022/08/23 15:47:19;;;;;;;0.80;0.60;;;33.40;36.50;;;;;;5033684;28;20447;-73
2022/08/23 15:49:46;;;;;;;0.90;0.60;;;32.90;37.00;;;;;;5034032;28;20475;-70
2022/08/23 15:52:13;;;;;;;0.70;0.70;;;32.30;37.70;;;;;;5033679;28;20554;-72
2022/08/23 15:54:41;;;;;;;0.70;0.60;;;31.20;39.20;;;;;;5033194;28;20487;-72
2022/08/23 15:57:08;;;;;;;0.77;0.60;;;30.80;39.90;;;;;;5033488;28;20452;-71
2022/08/23 15:59:37;;;;;;;0.70;0.70;;;30.20;40.10;;;;;;5033382;28;20447;-72
2022/08/23 16:02:05;;;;;;;0.77;0.70;;;30.10;40.70;;;;;;5033136;28;20510;-72
2022/08/23 16:04:32;;;;;;;0.90;0.80;;;29.90;41.20;;;;;;5033440;28;20507;-72
2022/08/23 16:06:59;;;;;;;0.73;0.60;;;29.90;41.20;;;;;;5033673;28;20558;-72
2022/08/23 16:09:27;;;;;;;0.73;0.60;;;29.70;41.30;;;;;;5033293;28;20494;-72